Princeton, North Carolina
Current Conditions -  °F | °C
As of 6:55 PM on Wednesday 26 Nov 2014 (Local Time) from KGWW Reporting Station
Scattered Clouds Scattered Clouds  
Wind Chill: 38°   Ceiling: Unl
Heat Index: 41°   Visibility: 10mi
Dew Point: 39°   Wind: 5mph
Humidity: 93%   Direction: 270°W
Pressure: 30.04"   Gusts: NA
Location:  35.47°N, 78.16°W
Report Text: KGWW 262355Z AUTO 27004KT 10SM SCT043 05/04 A3004 RMK AO2 P0002 60006 T00500040 10082 20050
Loading
Personal Weather Stations






























Interactive Weather Map New forecast layout! Learn more

10-Day Weather Forecast

Advertisements
Track Severe Weather on mobile